sensor_id;sensor_type;location;lat;lon;timestamp;P1;durP1;ratioP1;P2;durP2;ratioP2
15958;SDS011;8078;47.822;9.402;2023-12-28T00:02:13;5.07;;;3.50;;
15958;SDS011;8078;47.822;9.402;2023-12-28T00:04:39;4.33;;;3.93;;
15958;SDS011;8078;47.822;9.402;2023-12-28T00:07:05;5.00;;;3.70;;
15958;SDS011;8078;47.822;9.402;2023-12-28T00:09:31;5.70;;;3.60;;
15958;SDS011;8078;47.822;9.402;2023-12-28T00:11:56;4.93;;;3.67;;
15958;SDS011;8078;47.822;9.402;2023-12-28T00:14:23;4.97;;;4.47;;
15958;SDS011;8078;47.822;9.402;2023-12-28T00:16:49;4.83;;;4.03;;
15958;SDS011;8078;47.822;9.402;2023-12-28T00:19:14;4.67;;;3.90;;
15958;SDS011;8078;47.822;9.402;2023-12-28T00:21:40;5.20;;;3.77;;
15958;SDS011;8078;47.822;9.402;2023-12-28T00:24:06;5.13;;;3.97;;
15958;SDS011;8078;47.822;9.402;2023-12-28T00:26:31;6.37;;;3.97;;
15958;SDS011;8078;47.822;9.402;2023-12-28T00:28:57;4.17;;;3.77;;
15958;SDS011;8078;47.822;9.402;2023-12-28T00:31:23;4.47;;;3.77;;
15958;SDS011;8078;47.822;9.402;2023-12-28T00:33:48;4.40;;;4.00;;
15958;SDS011;8078;47.822;9.402;2023-12-28T00:36:15;5.13;;;3.77;;
15958;SDS011;8078;47.822;9.402;2023-12-28T00:38:41;4.43;;;3.50;;
15958;SDS011;8078;47.822;9.402;2023-12-28T00:41:07;6.40;;;4.13;;
15958;SDS011;8078;47.822;9.402;2023-12-28T00:43:32;4.20;;;3.80;;
15958;SDS011;8078;47.822;9.402;2023-12-28T00:45:58;4.17;;;3.30;;
15958;SDS011;8078;47.822;9.402;2023-12-28T00:48:24;5.67;;;3.60;;
15958;SDS011;8078;47.822;9.402;2023-12-28T00:50:49;4.97;;;3.37;;
15958;SDS011;8078;47.822;9.402;2023-12-28T00:53:15;4.17;;;3.70;;
15958;SDS011;8078;47.822;9.402;2023-12-28T00:55:40;5.30;;;3.70;;
15958;SDS011;8078;47.822;9.402;2023-12-28T00:58:06;4.80;;;3.87;;
15958;SDS011;8078;47.822;9.402;2023-12-28T01:00:32;5.80;;;3.93;;
15958;SDS011;8078;47.822;9.402;2023-12-28T01:02:57;4.77;;;3.90;;
15958;SDS011;8078;47.822;9.402;2023-12-28T01:05:23;5.70;;;3.87;;
15958;SDS011;8078;47.822;9.402;2023-12-28T01:07:51;3.97;;;3.30;;
15958;SDS011;8078;47.822;9.402;2023-12-28T01:10:16;4.80;;;4.10;;
15958;SDS011;8078;47.822;9.402;2023-12-28T01:12:42;5.00;;;3.67;;
15958;SDS011;8078;47.822;9.402;2023-12-28T01:15:08;3.50;;;3.17;;
15958;SDS011;8078;47.822;9.402;2023-12-28T01:17:34;4.43;;;3.13;;
15958;SDS011;8078;47.822;9.402;2023-12-28T01:20:00;4.23;;;3.30;;
15958;SDS011;8078;47.822;9.402;2023-12-28T01:22:25;4.00;;;3.50;;
15958;SDS011;8078;47.822;9.402;2023-12-28T01:24:51;4.33;;;3.80;;
15958;SDS011;8078;47.822;9.402;2023-12-28T01:27:17;4.53;;;3.23;;
15958;SDS011;8078;47.822;9.402;2023-12-28T01:29:42;6.30;;;3.40;;
15958;SDS011;8078;47.822;9.402;2023-12-28T01:32:08;3.87;;;3.07;;
15958;SDS011;8078;47.822;9.402;2023-12-28T01:34:33;4.43;;;3.17;;
15958;SDS011;8078;47.822;9.402;2023-12-28T01:36:59;4.43;;;3.13;;
15958;SDS011;8078;47.822;9.402;2023-12-28T01:39:24;4.47;;;3.30;;
15958;SDS011;8078;47.822;9.402;2023-12-28T01:41:50;3.33;;;2.80;;
15958;SDS011;8078;47.822;9.402;2023-12-28T01:44:15;3.50;;;3.07;;
15958;SDS011;8078;47.822;9.402;2023-12-28T01:46:41;4.53;;;3.37;;
15958;SDS011;8078;47.822;9.402;2023-12-28T01:49:07;5.43;;;3.33;;
15958;SDS011;8078;47.822;9.402;2023-12-28T01:51:32;4.17;;;3.63;;
15958;SDS011;8078;47.822;9.402;2023-12-28T01:53:59;5.27;;;3.33;;
15958;SDS011;8078;47.822;9.402;2023-12-28T01:56:25;6.50;;;3.20;;
15958;SDS011;8078;47.822;9.402;2023-12-28T01:58:51;4.50;;;3.53;;
15958;SDS011;8078;47.822;9.402;2023-12-28T02:01:18;5.30;;;3.77;;
15958;SDS011;8078;47.822;9.402;2023-12-28T02:03:44;4.53;;;3.60;;
15958;SDS011;8078;47.822;9.402;2023-12-28T02:06:10;3.83;;;3.40;;
15958;SDS011;8078;47.822;9.402;2023-12-28T02:08:37;4.50;;;3.80;;
15958;SDS011;8078;47.822;9.402;2023-12-28T02:11:02;4.73;;;3.53;;
15958;SDS011;8078;47.822;9.402;2023-12-28T02:13:28;3.97;;;3.40;;
15958;SDS011;8078;47.822;9.402;2023-12-28T02:15:54;5.63;;;3.50;;
15958;SDS011;8078;47.822;9.402;2023-12-28T02:18:31;5.87;;;3.77;;
15958;SDS011;8078;47.822;9.402;2023-12-28T02:21:02;4.53;;;3.73;;
15958;SDS011;8078;47.822;9.402;2023-12-28T02:23:28;4.50;;;3.43;;
15958;SDS011;8078;47.822;9.402;2023-12-28T02:25:54;4.17;;;3.37;;
15958;SDS011;8078;47.822;9.402;2023-12-28T02:28:20;4.30;;;3.57;;
15958;SDS011;8078;47.822;9.402;2023-12-28T02:30:45;4.53;;;3.57;;
15958;SDS011;8078;47.822;9.402;2023-12-28T02:33:24;4.27;;;3.40;;
15958;SDS011;8078;47.822;9.402;2023-12-28T02:36:13;4.73;;;4.03;;
15958;SDS011;8078;47.822;9.402;2023-12-28T02:38:45;4.60;;;4.03;;
15958;SDS011;8078;47.822;9.402;2023-12-28T02:41:13;4.00;;;3.60;;
15958;SDS011;8078;47.822;9.402;2023-12-28T02:43:39;4.63;;;3.90;;
15958;SDS011;8078;47.822;9.402;2023-12-28T02:46:05;4.77;;;3.67;;
15958;SDS011;8078;47.822;9.402;2023-12-28T02:48:30;5.27;;;3.93;;
15958;SDS011;8078;47.822;9.402;2023-12-28T02:50:56;4.40;;;4.00;;
15958;SDS011;8078;47.822;9.402;2023-12-28T02:53:21;4.23;;;3.83;;
15958;SDS011;8078;47.822;9.402;2023-12-28T02:55:47;6.97;;;3.80;;
15958;SDS011;8078;47.822;9.402;2023-12-28T02:58:12;4.67;;;3.80;;
15958;SDS011;8078;47.822;9.402;2023-12-28T03:00:38;4.97;;;4.13;;
15958;SDS011;8078;47.822;9.402;2023-12-28T03:03:03;5.30;;;3.50;;
15958;SDS011;8078;47.822;9.402;2023-12-28T03:05:29;4.13;;;3.43;;
15958;SDS011;8078;47.822;9.402;2023-12-28T03:07:55;4.10;;;3.67;;
15958;SDS011;8078;47.822;9.402;2023-12-28T03:10:20;7.80;;;3.40;;
15958;SDS011;8078;47.822;9.402;2023-12-28T03:12:46;5.93;;;3.70;;
15958;SDS011;8078;47.822;9.402;2023-12-28T03:15:12;4.07;;;3.50;;
15958;SDS011;8078;47.822;9.402;2023-12-28T03:17:38;4.57;;;3.77;;
15958;SDS011;8078;47.822;9.402;2023-12-28T03:20:03;5.17;;;3.67;;
15958;SDS011;8078;47.822;9.402;2023-12-28T03:22:31;6.33;;;3.53;;
15958;SDS011;8078;47.822;9.402;2023-12-28T03:24:57;3.73;;;3.40;;
15958;SDS011;8078;47.822;9.402;2023-12-28T03:27:24;6.43;;;3.83;;
15958;SDS011;8078;47.822;9.402;2023-12-28T03:29:50;4.70;;;3.53;;
15958;SDS011;8078;47.822;9.402;2023-12-28T03:32:15;4.73;;;3.87;;
15958;SDS011;8078;47.822;9.402;2023-12-28T03:34:41;4.03;;;3.37;;
15958;SDS011;8078;47.822;9.402;2023-12-28T03:37:06;4.97;;;3.53;;
15958;SDS011;8078;47.822;9.402;2023-12-28T03:39:32;3.50;;;3.17;;
15958;SDS011;8078;47.822;9.402;2023-12-28T03:41:58;4.47;;;3.63;;
15958;SDS011;8078;47.822;9.402;2023-12-28T03:44:23;4.40;;;4.00;;
15958;SDS011;8078;47.822;9.402;2023-12-28T03:46:49;3.53;;;3.23;;
15958;SDS011;8078;47.822;9.402;2023-12-28T03:49:19;4.43;;;3.67;;
15958;SDS011;8078;47.822;9.402;2023-12-28T03:51:45;4.03;;;3.60;;
15958;SDS011;8078;47.822;9.402;2023-12-28T03:54:12;5.60;;;3.57;;
15958;SDS011;8078;47.822;9.402;2023-12-28T03:56:40;5.70;;;3.60;;
15958;SDS011;8078;47.822;9.402;2023-12-28T03:59:06;5.97;;;3.07;;
15958;SDS011;8078;47.822;9.402;2023-12-28T04:01:32;5.10;;;3.27;;
15958;SDS011;8078;47.822;9.402;2023-12-28T04:03:57;3.73;;;2.83;;
15958;SDS011;8078;47.822;9.402;2023-12-28T04:06:23;5.50;;;3.23;;
15958;SDS011;8078;47.822;9.402;2023-12-28T04:08:48;3.23;;;2.83;;
15958;SDS011;8078;47.822;9.402;2023-12-28T04:11:14;5.00;;;4.00;;
15958;SDS011;8078;47.822;9.402;2023-12-28T04:13:40;3.70;;;3.33;;
15958;SDS011;8078;47.822;9.402;2023-12-28T04:16:05;6.20;;;3.83;;
15958;SDS011;8078;47.822;9.402;2023-12-28T04:18:31;5.50;;;3.70;;
15958;SDS011;8078;47.822;9.402;2023-12-28T04:20:57;4.13;;;3.50;;
15958;SDS011;8078;47.822;9.402;2023-12-28T04:23:23;3.90;;;3.50;;
15958;SDS011;8078;47.822;9.402;2023-12-28T04:25:50;4.73;;;3.30;;
15958;SDS011;8078;47.822;9.402;2023-12-28T04:28:15;3.87;;;3.17;;
15958;SDS011;8078;47.822;9.402;2023-12-28T04:30:41;3.60;;;2.97;;
15958;SDS011;8078;47.822;9.402;2023-12-28T04:33:06;3.30;;;3.00;;
15958;SDS011;8078;47.822;9.402;2023-12-28T04:35:32;3.87;;;3.40;;
15958;SDS011;8078;47.822;9.402;2023-12-28T04:37:58;3.57;;;2.90;;
15958;SDS011;8078;47.822;9.402;2023-12-28T04:40:23;4.97;;;3.10;;
15958;SDS011;8078;47.822;9.402;2023-12-28T04:42:49;3.30;;;2.93;;
15958;SDS011;8078;47.822;9.402;2023-12-28T04:45:14;4.50;;;3.27;;
15958;SDS011;8078;47.822;9.402;2023-12-28T04:47:40;3.30;;;3.00;;
15958;SDS011;8078;47.822;9.402;2023-12-28T04:50:07;3.67;;;2.97;;
15958;SDS011;8078;47.822;9.402;2023-12-28T04:52:32;4.23;;;3.43;;
15958;SDS011;8078;47.822;9.402;2023-12-28T04:54:58;5.60;;;3.20;;
15958;SDS011;8078;47.822;9.402;2023-12-28T04:57:24;4.33;;;3.30;;
15958;SDS011;8078;47.822;9.402;2023-12-28T04:59:50;4.20;;;3.10;;
15958;SDS011;8078;47.822;9.402;2023-12-28T05:02:16;3.67;;;3.27;;
15958;SDS011;8078;47.822;9.402;2023-12-28T05:04:42;3.77;;;3.23;;
15958;SDS011;8078;47.822;9.402;2023-12-28T05:07:07;3.83;;;3.00;;
15958;SDS011;8078;47.822;9.402;2023-12-28T05:09:33;4.50;;;4.00;;
15958;SDS011;8078;47.822;9.402;2023-12-28T05:11:59;4.17;;;3.40;;
15958;SDS011;8078;47.822;9.402;2023-12-28T05:14:24;5.03;;;3.73;;
15958;SDS011;8078;47.822;9.402;2023-12-28T05:16:50;3.73;;;2.97;;
15958;SDS011;8078;47.822;9.402;2023-12-28T05:19:16;4.30;;;3.83;;
15958;SDS011;8078;47.822;9.402;2023-12-28T05:21:41;4.10;;;3.47;;
15958;SDS011;8078;47.822;9.402;2023-12-28T05:24:07;3.90;;;3.30;;
15958;SDS011;8078;47.822;9.402;2023-12-28T05:26:33;6.13;;;3.60;;
15958;SDS011;8078;47.822;9.402;2023-12-28T05:28:58;4.57;;;3.40;;
15958;SDS011;8078;47.822;9.402;2023-12-28T05:31:24;4.67;;;3.33;;
15958;SDS011;8078;47.822;9.402;2023-12-28T05:33:50;3.87;;;3.37;;
15958;SDS011;8078;47.822;9.402;2023-12-28T05:36:15;4.17;;;3.47;;
15958;SDS011;8078;47.822;9.402;2023-12-28T05:38:41;4.87;;;3.33;;
15958;SDS011;8078;47.822;9.402;2023-12-28T05:41:06;3.50;;;3.20;;
15958;SDS011;8078;47.822;9.402;2023-12-28T05:43:34;3.73;;;2.90;;
15958;SDS011;8078;47.822;9.402;2023-12-28T05:45:59;4.53;;;3.37;;
15958;SDS011;8078;47.822;9.402;2023-12-28T05:48:25;4.00;;;3.10;;
15958;SDS011;8078;47.822;9.402;2023-12-28T05:50:51;3.50;;;3.20;;
15958;SDS011;8078;47.822;9.402;2023-12-28T05:53:16;3.70;;;3.03;;
15958;SDS011;8078;47.822;9.402;2023-12-28T05:55:42;4.87;;;3.40;;
15958;SDS011;8078;47.822;9.402;2023-12-28T05:58:08;3.70;;;3.33;;
15958;SDS011;8078;47.822;9.402;2023-12-28T06:00:37;3.33;;;3.03;;
15958;SDS011;8078;47.822;9.402;2023-12-28T06:03:03;3.80;;;3.00;;
15958;SDS011;8078;47.822;9.402;2023-12-28T06:05:29;4.80;;;3.63;;
15958;SDS011;8078;47.822;9.402;2023-12-28T06:07:55;5.73;;;3.60;;
15958;SDS011;8078;47.822;9.402;2023-12-28T06:10:20;5.17;;;3.53;;
15958;SDS011;8078;47.822;9.402;2023-12-28T06:12:46;5.67;;;3.70;;
15958;SDS011;8078;47.822;9.402;2023-12-28T06:15:11;6.50;;;3.37;;
15958;SDS011;8078;47.822;9.402;2023-12-28T06:17:37;4.37;;;3.10;;
15958;SDS011;8078;47.822;9.402;2023-12-28T06:20:03;3.83;;;3.43;;
15958;SDS011;8078;47.822;9.402;2023-12-28T06:22:29;3.83;;;3.40;;
15958;SDS011;8078;47.822;9.402;2023-12-28T06:24:55;3.80;;;3.03;;
15958;SDS011;8078;47.822;9.402;2023-12-28T06:27:20;3.40;;;3.10;;
15958;SDS011;8078;47.822;9.402;2023-12-28T06:29:46;3.67;;;3.13;;
15958;SDS011;8078;47.822;9.402;2023-12-28T06:32:12;3.47;;;3.17;;
15958;SDS011;8078;47.822;9.402;2023-12-28T06:34:37;5.30;;;3.63;;
15958;SDS011;8078;47.822;9.402;2023-12-28T06:37:04;5.10;;;3.17;;
15958;SDS011;8078;47.822;9.402;2023-12-28T06:39:29;4.27;;;3.53;;
15958;SDS011;8078;47.822;9.402;2023-12-28T06:41:55;3.87;;;3.47;;
15958;SDS011;8078;47.822;9.402;2023-12-28T06:44:20;5.10;;;3.30;;
15958;SDS011;8078;47.822;9.402;2023-12-28T06:46:46;4.20;;;3.80;;
15958;SDS011;8078;47.822;9.402;2023-12-28T06:49:11;3.97;;;3.20;;
15958;SDS011;8078;47.822;9.402;2023-12-28T06:51:37;3.30;;;3.00;;
15958;SDS011;8078;47.822;9.402;2023-12-28T06:54:03;4.73;;;3.57;;
15958;SDS011;8078;47.822;9.402;2023-12-28T06:56:28;4.50;;;3.60;;
15958;SDS011;8078;47.822;9.402;2023-12-28T06:58:54;3.87;;;3.30;;
15958;SDS011;8078;47.822;9.402;2023-12-28T07:01:19;3.67;;;3.37;;
15958;SDS011;8078;47.822;9.402;2023-12-28T07:03:45;4.40;;;3.80;;
15958;SDS011;8078;47.822;9.402;2023-12-28T07:06:11;5.30;;;3.63;;
15958;SDS011;8078;47.822;9.402;2023-12-28T07:08:38;4.77;;;3.63;;
15958;SDS011;8078;47.822;9.402;2023-12-28T07:11:03;3.77;;;3.20;;
15958;SDS011;8078;47.822;9.402;2023-12-28T07:13:29;3.63;;;3.33;;
15958;SDS011;8078;47.822;9.402;2023-12-28T07:15:54;5.33;;;3.47;;
15958;SDS011;8078;47.822;9.402;2023-12-28T07:18:20;3.70;;;3.30;;
15958;SDS011;8078;47.822;9.402;2023-12-28T07:20:46;3.70;;;3.23;;
15958;SDS011;8078;47.822;9.402;2023-12-28T07:23:11;3.87;;;3.47;;
15958;SDS011;8078;47.822;9.402;2023-12-28T07:25:38;4.17;;;3.27;;
15958;SDS011;8078;47.822;9.402;2023-12-28T07:28:03;3.70;;;3.27;;
15958;SDS011;8078;47.822;9.402;2023-12-28T07:30:29;4.57;;;3.37;;
15958;SDS011;8078;47.822;9.402;2023-12-28T07:32:55;3.87;;;2.83;;
15958;SDS011;8078;47.822;9.402;2023-12-28T07:35:21;3.23;;;2.93;;
15958;SDS011;8078;47.822;9.402;2023-12-28T07:37:46;4.00;;;2.90;;
15958;SDS011;8078;47.822;9.402;2023-12-28T07:40:12;3.67;;;2.73;;
15958;SDS011;8078;47.822;9.402;2023-12-28T07:42:38;3.63;;;2.50;;
15958;SDS011;8078;47.822;9.402;2023-12-28T07:45:04;3.07;;;2.77;;
15958;SDS011;8078;47.822;9.402;2023-12-28T07:47:30;4.63;;;3.00;;
15958;SDS011;8078;47.822;9.402;2023-12-28T07:49:55;3.00;;;2.70;;
15958;SDS011;8078;47.822;9.402;2023-12-28T07:52:21;2.73;;;2.50;;
15958;SDS011;8078;47.822;9.402;2023-12-28T07:54:47;3.07;;;2.77;;
15958;SDS011;8078;47.822;9.402;2023-12-28T07:57:12;2.97;;;2.70;;
15958;SDS011;8078;47.822;9.402;2023-12-28T07:59:38;3.27;;;2.60;;
15958;SDS011;8078;47.822;9.402;2023-12-28T08:02:03;4.47;;;2.47;;
15958;SDS011;8078;47.822;9.402;2023-12-28T08:04:30;3.93;;;2.53;;
15958;SDS011;8078;47.822;9.402;2023-12-28T08:06:56;4.93;;;2.87;;
15958;SDS011;8078;47.822;9.402;2023-12-28T08:09:21;4.07;;;2.60;;
15958;SDS011;8078;47.822;9.402;2023-12-28T08:11:47;3.20;;;2.77;;
15958;SDS011;8078;47.822;9.402;2023-12-28T08:14:13;3.77;;;2.30;;
15958;SDS011;8078;47.822;9.402;2023-12-28T08:16:39;2.90;;;2.60;;
15958;SDS011;8078;47.822;9.402;2023-12-28T08:19:04;4.67;;;3.07;;
15958;SDS011;8078;47.822;9.402;2023-12-28T08:21:30;3.60;;;2.87;;
15958;SDS011;8078;47.822;9.402;2023-12-28T08:23:56;4.00;;;2.93;;
15958;SDS011;8078;47.822;9.402;2023-12-28T08:26:21;3.87;;;3.00;;
15958;SDS011;8078;47.822;9.402;2023-12-28T08:28:47;3.30;;;3.00;;
15958;SDS011;8078;47.822;9.402;2023-12-28T08:31:12;2.90;;;2.70;;
15958;SDS011;8078;47.822;9.402;2023-12-28T08:33:38;3.37;;;2.70;;
15958;SDS011;8078;47.822;9.402;2023-12-28T08:36:05;4.27;;;2.53;;
15958;SDS011;8078;47.822;9.402;2023-12-28T08:38:33;3.37;;;2.70;;
15958;SDS011;8078;47.822;9.402;2023-12-28T08:40:59;2.90;;;2.70;;
15958;SDS011;8078;47.822;9.402;2023-12-28T08:43:25;2.97;;;2.53;;
15958;SDS011;8078;47.822;9.402;2023-12-28T08:45:50;4.93;;;3.20;;
15958;SDS011;8078;47.822;9.402;2023-12-28T08:48:18;2.70;;;2.50;;
15958;SDS011;8078;47.822;9.402;2023-12-28T08:50:44;3.13;;;2.83;;
15958;SDS011;8078;47.822;9.402;2023-12-28T08:53:09;2.80;;;2.33;;
15958;SDS011;8078;47.822;9.402;2023-12-28T08:55:35;3.13;;;2.80;;
15958;SDS011;8078;47.822;9.402;2023-12-28T08:58:01;5.63;;;3.17;;
15958;SDS011;8078;47.822;9.402;2023-12-28T09:00:26;4.13;;;2.90;;
15958;SDS011;8078;47.822;9.402;2023-12-28T09:02:52;3.17;;;2.87;;
15958;SDS011;8078;47.822;9.402;2023-12-28T09:05:18;3.43;;;3.00;;
15958;SDS011;8078;47.822;9.402;2023-12-28T09:07:43;3.20;;;2.90;;
15958;SDS011;8078;47.822;9.402;2023-12-28T09:10:12;4.60;;;3.60;;
15958;SDS011;8078;47.822;9.402;2023-12-28T09:12:38;3.93;;;2.97;;
15958;SDS011;8078;47.822;9.402;2023-12-28T09:15:05;3.20;;;2.90;;
15958;SDS011;8078;47.822;9.402;2023-12-28T09:17:31;4.53;;;3.20;;
15958;SDS011;8078;47.822;9.402;2023-12-28T09:19:57;5.13;;;3.27;;
15958;SDS011;8078;47.822;9.402;2023-12-28T09:22:26;5.17;;;3.13;;
15958;SDS011;8078;47.822;9.402;2023-12-28T09:24:51;3.97;;;3.30;;
15958;SDS011;8078;47.822;9.402;2023-12-28T09:27:17;3.10;;;2.80;;
15958;SDS011;8078;47.822;9.402;2023-12-28T09:29:43;2.60;;;2.40;;
15958;SDS011;8078;47.822;9.402;2023-12-28T09:32:08;3.20;;;2.73;;
15958;SDS011;8078;47.822;9.402;2023-12-28T09:34:34;4.60;;;3.17;;
15958;SDS011;8078;47.822;9.402;2023-12-28T09:36:59;4.50;;;3.00;;
15958;SDS011;8078;47.822;9.402;2023-12-28T09:39:25;4.13;;;3.10;;
15958;SDS011;8078;47.822;9.402;2023-12-28T09:41:59;3.57;;;2.97;;
15958;SDS011;8078;47.822;9.402;2023-12-28T09:44:29;3.87;;;2.70;;
15958;SDS011;8078;47.822;9.402;2023-12-28T09:46:56;5.10;;;2.90;;
15958;SDS011;8078;47.822;9.402;2023-12-28T09:49:23;3.60;;;2.40;;
15958;SDS011;8078;47.822;9.402;2023-12-28T09:51:48;4.73;;;3.50;;
15958;SDS011;8078;47.822;9.402;2023-12-28T09:54:14;3.30;;;3.00;;
15958;SDS011;8078;47.822;9.402;2023-12-28T09:56:40;4.67;;;3.30;;
15958;SDS011;8078;47.822;9.402;2023-12-28T09:59:06;5.10;;;3.30;;
15958;SDS011;8078;47.822;9.402;2023-12-28T10:01:35;4.13;;;3.10;;
15958;SDS011;8078;47.822;9.402;2023-12-28T10:04:01;3.77;;;2.70;;
15958;SDS011;8078;47.822;9.402;2023-12-28T10:06:28;3.50;;;2.87;;
15958;SDS011;8078;47.822;9.402;2023-12-28T10:08:53;3.37;;;2.53;;
15958;SDS011;8078;47.822;9.402;2023-12-28T10:11:20;3.67;;;2.77;;
15958;SDS011;8078;47.822;9.402;2023-12-28T10:13:48;3.73;;;3.00;;
15958;SDS011;8078;47.822;9.402;2023-12-28T10:16:14;4.43;;;2.90;;
15958;SDS011;8078;47.822;9.402;2023-12-28T10:18:41;3.53;;;3.23;;
15958;SDS011;8078;47.822;9.402;2023-12-28T10:21:10;4.23;;;3.10;;
15958;SDS011;8078;47.822;9.402;2023-12-28T10:23:37;4.37;;;3.03;;
15958;SDS011;8078;47.822;9.402;2023-12-28T10:26:04;3.57;;;2.90;;
15958;SDS011;8078;47.822;9.402;2023-12-28T10:28:39;3.50;;;3.20;;
15958;SDS011;8078;47.822;9.402;2023-12-28T10:31:05;3.10;;;2.80;;
15958;SDS011;8078;47.822;9.402;2023-12-28T10:33:34;4.93;;;3.10;;
15958;SDS011;8078;47.822;9.402;2023-12-28T10:36:00;5.07;;;3.03;;
15958;SDS011;8078;47.822;9.402;2023-12-28T10:38:34;3.33;;;3.03;;
15958;SDS011;8078;47.822;9.402;2023-12-28T10:41:07;5.60;;;2.83;;
15958;SDS011;8078;47.822;9.402;2023-12-28T10:43:36;3.63;;;2.77;;
15958;SDS011;8078;47.822;9.402;2023-12-28T10:46:22;3.63;;;3.20;;
15958;SDS011;8078;47.822;9.402;2023-12-28T10:48:57;3.33;;;3.03;;
15958;SDS011;8078;47.822;9.402;2023-12-28T10:51:34;5.53;;;3.00;;
15958;SDS011;8078;47.822;9.402;2023-12-28T10:56:36;3.07;;;2.77;;
15958;SDS011;8078;47.822;9.402;2023-12-28T11:01:51;4.73;;;3.17;;
15958;SDS011;8078;47.822;9.402;2023-12-28T11:06:45;3.63;;;2.87;;
15958;SDS011;8078;47.822;9.402;2023-12-28T11:09:13;4.33;;;3.13;;
15958;SDS011;8078;47.822;9.402;2023-12-28T11:11:40;5.43;;;3.40;;
15958;SDS011;8078;47.822;9.402;2023-12-28T11:14:08;4.87;;;2.93;;
15958;SDS011;8078;47.822;9.402;2023-12-28T11:16:34;5.30;;;3.37;;
15958;SDS011;8078;47.822;9.402;2023-12-28T11:19:02;4.63;;;3.23;;
15958;SDS011;8078;47.822;9.402;2023-12-28T11:21:28;6.73;;;3.33;;
15958;SDS011;8078;47.822;9.402;2023-12-28T11:23:55;4.53;;;3.10;;
15958;SDS011;8078;47.822;9.402;2023-12-28T11:26:22;4.27;;;3.00;;
15958;SDS011;8078;47.822;9.402;2023-12-28T11:28:48;4.73;;;3.30;;
15958;SDS011;8078;47.822;9.402;2023-12-28T11:31:15;5.17;;;3.10;;
15958;SDS011;8078;47.822;9.402;2023-12-28T11:33:44;3.93;;;3.33;;
15958;SDS011;8078;47.822;9.402;2023-12-28T11:36:10;4.43;;;3.40;;
15958;SDS011;8078;47.822;9.402;2023-12-28T11:38:37;4.50;;;3.07;;
15958;SDS011;8078;47.822;9.402;2023-12-28T11:41:05;5.23;;;3.43;;
15958;SDS011;8078;47.822;9.402;2023-12-28T11:43:34;3.73;;;3.20;;
15958;SDS011;8078;47.822;9.402;2023-12-28T11:46:00;4.43;;;3.60;;
15958;SDS011;8078;47.822;9.402;2023-12-28T11:48:26;4.17;;;3.30;;
15958;SDS011;8078;47.822;9.402;2023-12-28T11:50:54;4.47;;;3.57;;
15958;SDS011;8078;47.822;9.402;2023-12-28T11:53:22;5.73;;;3.70;;
15958;SDS011;8078;47.822;9.402;2023-12-28T11:55:48;5.17;;;3.70;;
15958;SDS011;8078;47.822;9.402;2023-12-28T11:58:15;4.07;;;3.23;;
15958;SDS011;8078;47.822;9.402;2023-12-28T12:00:44;5.27;;;3.57;;
15958;SDS011;8078;47.822;9.402;2023-12-28T12:03:10;3.80;;;3.40;;
15958;SDS011;8078;47.822;9.402;2023-12-28T12:05:37;8.83;;;3.47;;
15958;SDS011;8078;47.822;9.402;2023-12-28T12:08:04;4.03;;;3.50;;
15958;SDS011;8078;47.822;9.402;2023-12-28T12:10:30;4.27;;;3.40;;
15958;SDS011;8078;47.822;9.402;2023-12-28T12:12:57;6.93;;;4.00;;
15958;SDS011;8078;47.822;9.402;2023-12-28T12:15:23;6.07;;;3.40;;
15958;SDS011;8078;47.822;9.402;2023-12-28T12:17:48;4.67;;;3.30;;
15958;SDS011;8078;47.822;9.402;2023-12-28T12:20:15;4.27;;;3.40;;
15958;SDS011;8078;47.822;9.402;2023-12-28T12:22:41;5.57;;;3.47;;
15958;SDS011;8078;47.822;9.402;2023-12-28T12:25:06;4.20;;;3.43;;
15958;SDS011;8078;47.822;9.402;2023-12-28T12:27:34;4.00;;;3.60;;
15958;SDS011;8078;47.822;9.402;2023-12-28T12:30:01;5.17;;;3.43;;
15958;SDS011;8078;47.822;9.402;2023-12-28T12:32:27;4.43;;;3.70;;
15958;SDS011;8078;47.822;9.402;2023-12-28T12:34:53;6.40;;;3.67;;
15958;SDS011;8078;47.822;9.402;2023-12-28T12:37:19;5.40;;;4.50;;
15958;SDS011;8078;47.822;9.402;2023-12-28T12:39:44;4.33;;;3.77;;
15958;SDS011;8078;47.822;9.402;2023-12-28T12:42:13;7.60;;;4.03;;
15958;SDS011;8078;47.822;9.402;2023-12-28T12:44:39;4.13;;;3.50;;
15958;SDS011;8078;47.822;9.402;2023-12-28T12:47:05;5.13;;;3.60;;
15958;SDS011;8078;47.822;9.402;2023-12-28T12:49:32;4.70;;;3.50;;
15958;SDS011;8078;47.822;9.402;2023-12-28T12:51:57;4.93;;;3.97;;
15958;SDS011;8078;47.822;9.402;2023-12-28T12:54:26;6.30;;;4.17;;
15958;SDS011;8078;47.822;9.402;2023-12-28T12:56:53;4.37;;;3.97;;
15958;SDS011;8078;47.822;9.402;2023-12-28T12:59:19;4.93;;;4.27;;
15958;SDS011;8078;47.822;9.402;2023-12-28T13:01:47;6.80;;;3.43;;
15958;SDS011;8078;47.822;9.402;2023-12-28T13:04:17;4.33;;;3.93;;
15958;SDS011;8078;47.822;9.402;2023-12-28T13:06:43;5.23;;;4.07;;
15958;SDS011;8078;47.822;9.402;2023-12-28T13:09:08;5.30;;;4.10;;
15958;SDS011;8078;47.822;9.402;2023-12-28T13:11:36;7.37;;;3.83;;
15958;SDS011;8078;47.822;9.402;2023-12-28T13:14:02;4.90;;;4.27;;
15958;SDS011;8078;47.822;9.402;2023-12-28T13:16:27;6.10;;;4.23;;
15958;SDS011;8078;47.822;9.402;2023-12-28T13:18:53;5.10;;;4.23;;
15958;SDS011;8078;47.822;9.402;2023-12-28T13:21:19;4.63;;;4.13;;
15958;SDS011;8078;47.822;9.402;2023-12-28T13:23:45;7.00;;;4.80;;
15958;SDS011;8078;47.822;9.402;2023-12-28T13:26:10;4.57;;;3.90;;
15958;SDS011;8078;47.822;9.402;2023-12-28T13:28:36;4.27;;;3.87;;
15958;SDS011;8078;47.822;9.402;2023-12-28T13:31:01;6.97;;;3.90;;
15958;SDS011;8078;47.822;9.402;2023-12-28T13:33:27;5.57;;;3.97;;
15958;SDS011;8078;47.822;9.402;2023-12-28T13:35:52;5.27;;;4.53;;
15958;SDS011;8078;47.822;9.402;2023-12-28T13:38:18;4.83;;;3.73;;
15958;SDS011;8078;47.822;9.402;2023-12-28T13:40:44;6.03;;;4.93;;
15958;SDS011;8078;47.822;9.402;2023-12-28T13:43:09;4.97;;;4.13;;
15958;SDS011;8078;47.822;9.402;2023-12-28T13:45:35;5.07;;;4.20;;
15958;SDS011;8078;47.822;9.402;2023-12-28T13:48:01;6.23;;;4.67;;
15958;SDS011;8078;47.822;9.402;2023-12-28T13:50:27;9.17;;;4.80;;
15958;SDS011;8078;47.822;9.402;2023-12-28T13:52:53;5.87;;;4.20;;
15958;SDS011;8078;47.822;9.402;2023-12-28T13:55:19;5.93;;;4.40;;
15958;SDS011;8078;47.822;9.402;2023-12-28T13:57:44;5.00;;;4.50;;
15958;SDS011;8078;47.822;9.402;2023-12-28T14:00:10;5.87;;;5.10;;
15958;SDS011;8078;47.822;9.402;2023-12-28T14:02:43;6.37;;;4.17;;
15958;SDS011;8078;47.822;9.402;2023-12-28T14:05:08;6.63;;;4.37;;
15958;SDS011;8078;47.822;9.402;2023-12-28T14:07:34;4.63;;;3.70;;
15958;SDS011;8078;47.822;9.402;2023-12-28T14:10:00;4.70;;;4.20;;
15958;SDS011;8078;47.822;9.402;2023-12-28T14:12:25;5.37;;;4.40;;
15958;SDS011;8078;47.822;9.402;2023-12-28T14:14:51;4.97;;;4.27;;
15958;SDS011;8078;47.822;9.402;2023-12-28T14:17:17;5.73;;;4.43;;
15958;SDS011;8078;47.822;9.402;2023-12-28T14:19:44;7.00;;;4.03;;
15958;SDS011;8078;47.822;9.402;2023-12-28T14:22:11;7.70;;;4.83;;
15958;SDS011;8078;47.822;9.402;2023-12-28T14:24:37;4.90;;;4.00;;
15958;SDS011;8078;47.822;9.402;2023-12-28T14:27:03;7.40;;;4.83;;
15958;SDS011;8078;47.822;9.402;2023-12-28T14:29:29;6.37;;;4.30;;
15958;SDS011;8078;47.822;9.402;2023-12-28T14:31:55;6.27;;;5.00;;
15958;SDS011;8078;47.822;9.402;2023-12-28T14:34:21;7.10;;;5.17;;
15958;SDS011;8078;47.822;9.402;2023-12-28T14:36:47;5.67;;;4.63;;
15958;SDS011;8078;47.822;9.402;2023-12-28T14:39:15;6.57;;;5.10;;
15958;SDS011;8078;47.822;9.402;2023-12-28T14:41:43;5.70;;;4.50;;
15958;SDS011;8078;47.822;9.402;2023-12-28T14:44:09;6.50;;;4.90;;
15958;SDS011;8078;47.822;9.402;2023-12-28T14:46:35;5.63;;;4.43;;
15958;SDS011;8078;47.822;9.402;2023-12-28T14:49:00;5.93;;;4.90;;
15958;SDS011;8078;47.822;9.402;2023-12-28T14:51:27;9.33;;;5.07;;
15958;SDS011;8078;47.822;9.402;2023-12-28T14:53:53;5.63;;;4.53;;
15958;SDS011;8078;47.822;9.402;2023-12-28T14:56:18;6.53;;;5.27;;
15958;SDS011;8078;47.822;9.402;2023-12-28T14:58:44;7.03;;;4.77;;
15958;SDS011;8078;47.822;9.402;2023-12-28T15:01:13;7.80;;;4.53;;
15958;SDS011;8078;47.822;9.402;2023-12-28T15:03:39;7.60;;;5.10;;